createdAt,value
2022-10-02T00:07:12.374Z,8.63
2022-10-02T00:17:28.511Z,8.53
2022-10-02T00:27:41.907Z,10.07
2022-10-02T00:38:25.147Z,9.30
2022-10-02T00:48:51.639Z,10.13
2022-10-02T00:59:10.953Z,13.17
2022-10-02T01:09:13.453Z,15.77
2022-10-02T01:19:35.607Z,12.43
2022-10-02T01:29:39.944Z,14.87
2022-10-02T01:39:42.094Z,13.03
2022-10-02T01:50:33.925Z,15.33
2022-10-02T02:00:57.884Z,15.03
2022-10-02T02:11:16.406Z,13.43
2022-10-02T02:21:39.625Z,13.57
2022-10-02T02:31:49.808Z,12.63
2022-10-02T02:42:04.344Z,12.13
2022-10-02T02:52:08.676Z,15.83
2022-10-02T03:02:11.786Z,13.70
2022-10-02T03:12:41.281Z,13.27
2022-10-02T03:23:12.605Z,15.27
2022-10-02T03:33:17.526Z,15.27
2022-10-02T03:43:23.306Z,15.83
2022-10-02T03:53:30.888Z,16.23
2022-10-02T04:03:39.150Z,14.43
2022-10-02T04:13:50.834Z,16.63
2022-10-02T04:23:57.096Z,18.80
2022-10-02T04:34:07.218Z,20.23
2022-10-02T04:44:16.922Z,18.37
2022-10-02T04:54:28.720Z,19.17
2022-10-02T05:04:58.081Z,18.53
2022-10-02T05:15:22.964Z,18.70
2022-10-02T05:25:50.175Z,17.43
2022-10-02T05:36:10.593Z,17.50
2022-10-02T05:46:24.343Z,18.23
2022-10-02T05:56:33.958Z,20.93
2022-10-02T06:06:42.107Z,16.00
2022-10-02T06:17:05.844Z,15.77
2022-10-02T06:27:15.474Z,15.37
2022-10-02T06:37:39.895Z,16.77
2022-10-02T06:48:05.778Z,15.07
2022-10-02T06:58:16.735Z,15.17
2022-10-02T07:08:27.947Z,13.37
2022-10-02T07:18:42.990Z,14.43
2022-10-02T07:29:09.039Z,11.70
2022-10-02T07:39:20.217Z,19.00
2022-10-02T07:49:45.165Z,11.13
2022-10-02T07:59:53.424Z,10.57
2022-10-02T08:09:58.340Z,10.23
2022-10-02T08:20:09.937Z,8.33
2022-10-02T08:30:18.559Z,8.27
2022-10-02T08:40:32.243Z,6.67
2022-10-02T08:51:05.392Z,6.53
2022-10-02T09:01:35.239Z,5.50
2022-10-02T09:11:45.183Z,5.05
2022-10-02T09:21:56.461Z,9.57
2022-10-02T09:32:44.716Z,4.85
2022-10-02T09:43:13.913Z,3.83
2022-10-02T09:53:49.365Z,5.45
2022-10-02T10:04:01.219Z,3.25
2022-10-02T10:14:26.332Z,3.72
2022-10-02T10:24:55.352Z,4.45
2022-10-02T10:35:03.389Z,4.82
2022-10-02T10:45:23.555Z,4.55
2022-10-02T10:55:51.567Z,6.57
2022-10-02T11:06:07.006Z,4.38
2022-10-02T11:16:31.813Z,5.65
2022-10-02T11:27:19.924Z,6.33
2022-10-02T11:37:46.296Z,6.13
2022-10-02T11:48:28.388Z,4.70
2022-10-02T11:59:01.422Z,4.43
2022-10-02T12:09:24.063Z,4.00
2022-10-02T12:20:29.511Z,2.95
2022-10-02T12:30:40.914Z,3.37
2022-10-02T12:40:56.675Z,5.70
2022-10-02T12:51:44.443Z,7.63
2022-10-02T13:02:09.174Z,5.65
2022-10-02T13:12:39.632Z,5.03
2022-10-02T13:23:14.703Z,5.03
2022-10-02T13:33:53.025Z,5.53
2022-10-02T13:44:16.144Z,6.55
2022-10-02T13:55:13.604Z,7.63
2022-10-02T14:06:03.170Z,4.22
2022-10-02T14:16:29.746Z,4.82
2022-10-02T14:26:55.028Z,5.32
2022-10-02T14:37:34.397Z,5.07
2022-10-02T14:48:01.739Z,4.97
2022-10-02T14:58:39.393Z,4.53
2022-10-02T15:09:01.006Z,6.90
2022-10-02T15:19:13.055Z,4.45
2022-10-02T15:29:41.352Z,7.65
2022-10-02T15:40:10.054Z,4.60
2022-10-02T15:50:40.959Z,5.57
2022-10-02T16:01:05.883Z,5.80
2022-10-02T16:11:20.700Z,4.73
2022-10-02T16:21:39.290Z,4.87
2022-10-02T16:31:55.760Z,6.60
2022-10-02T16:42:25.110Z,5.40
2022-10-02T16:52:53.533Z,6.03
2022-10-02T17:03:15.545Z,8.63
2022-10-02T17:13:43.184Z,7.60
2022-10-02T17:24:12.335Z,7.60
2022-10-02T17:34:18.037Z,6.40
2022-10-02T17:44:38.363Z,9.43
2022-10-02T17:55:08.097Z,10.00
2022-10-02T18:05:33.529Z,8.57
2022-10-02T18:16:16.203Z,7.70
2022-10-02T18:26:24.865Z,7.10
2022-10-02T18:36:52.020Z,7.70
2022-10-02T18:47:02.882Z,7.73
2022-10-02T18:57:07.936Z,9.17
2022-10-02T19:07:16.860Z,8.13
2022-10-02T19:17:26.181Z,9.60
2022-10-02T19:27:33.111Z,8.20
2022-10-02T19:38:06.621Z,10.73
2022-10-02T19:48:10.668Z,9.87
2022-10-02T19:58:36.047Z,6.43
2022-10-02T20:08:43.941Z,6.00
2022-10-02T20:18:56.095Z,4.53
2022-10-02T20:29:05.214Z,4.27
2022-10-02T20:39:14.590Z,5.07
2022-10-02T20:49:41.502Z,4.43
2022-10-02T20:59:48.300Z,5.47
2022-10-02T21:10:31.293Z,9.60
2022-10-02T21:21:13.281Z,8.90
2022-10-02T21:31:33.598Z,7.43
2022-10-02T21:42:07.541Z,6.33
2022-10-02T21:52:31.890Z,6.47
2022-10-02T22:03:07.676Z,7.50
2022-10-02T22:13:25.614Z,8.43
2022-10-02T22:23:49.443Z,4.43
2022-10-02T22:34:08.652Z,6.70
2022-10-02T22:44:24.417Z,8.53
2022-10-02T22:54:47.335Z,8.83
2022-10-02T23:04:54.051Z,7.07
2022-10-02T23:15:05.713Z,7.57
2022-10-02T23:25:22.981Z,6.60
2022-10-02T23:35:36.496Z,15.37
2022-10-02T23:45:53.850Z,10.87
2022-10-02T23:56:04.013Z,14.60
